createdAt,value
2023-04-06T00:01:59.720Z,4.30
2023-04-06T00:04:27.714Z,4.06
2023-04-06T00:06:55.360Z,4.16
2023-04-06T00:09:22.970Z,4.19
2023-04-06T00:11:50.573Z,4.05
2023-04-06T00:14:18.645Z,4.08
2023-04-06T00:16:46.274Z,4.03
2023-04-06T00:19:13.859Z,3.98
2023-04-06T00:21:41.565Z,3.76
2023-04-06T00:24:09.200Z,3.77
2023-04-06T00:26:36.722Z,3.87
2023-04-06T00:29:04.430Z,3.90
2023-04-06T00:31:32.012Z,3.76
2023-04-06T00:34:00.561Z,3.81
2023-04-06T00:36:28.258Z,3.76
2023-04-06T00:38:56.298Z,3.71
2023-04-06T00:41:23.849Z,3.74
2023-04-06T00:43:51.396Z,3.44
2023-04-06T00:46:18.979Z,3.26
2023-04-06T00:48:46.543Z,3.30
2023-04-06T00:51:14.086Z,3.08
2023-04-06T00:53:41.586Z,3.01
2023-04-06T00:56:11.545Z,3.30
2023-04-06T00:58:49.846Z,3.22
2023-04-06T01:01:17.778Z,3.18
2023-04-06T01:03:49.753Z,3.10
2023-04-06T01:06:18.643Z,3.06
2023-04-06T01:08:53.350Z,3.16
2023-04-06T01:11:23.425Z,3.32
2023-04-06T01:13:52.379Z,3.33
2023-04-06T01:16:43.675Z,3.32
2023-04-06T01:19:21.661Z,3.16
2023-04-06T01:21:54.304Z,3.33
2023-04-06T01:24:43.001Z,3.27
2023-04-06T01:27:15.657Z,3.10
2023-04-06T01:30:04.021Z,2.99
2023-04-06T01:32:48.338Z,2.91
2023-04-06T01:35:21.012Z,3.08
2023-04-06T01:37:59.560Z,3.05
2023-04-06T01:40:32.090Z,2.96
2023-04-06T01:42:59.658Z,3.14
2023-04-06T01:45:36.070Z,3.19
2023-04-06T01:48:15.994Z,3.27
2023-04-06T01:50:43.678Z,3.34
2023-04-06T01:53:15.535Z,3.34
2023-04-06T01:55:45.013Z,3.16
2023-04-06T01:58:24.051Z,3.28
2023-04-06T02:00:51.874Z,3.32
2023-04-06T02:03:19.557Z,3.42
2023-04-06T02:05:48.045Z,3.11
2023-04-06T02:08:24.810Z,2.89
2023-04-06T02:10:52.368Z,2.96
2023-04-06T02:13:30.964Z,3.02
2023-04-06T02:15:59.760Z,3.04
2023-04-06T02:18:32.696Z,3.21
2023-04-06T02:21:00.274Z,3.28
2023-04-06T02:23:27.915Z,3.12
2023-04-06T02:25:55.509Z,3.18
2023-04-06T02:28:23.270Z,3.33
2023-04-06T02:30:50.982Z,3.10
2023-04-06T02:33:19.369Z,2.90
2023-04-06T02:35:48.657Z,3.06
2023-04-06T02:38:16.216Z,3.02
2023-04-06T02:40:43.839Z,3.01
2023-04-06T02:43:21.568Z,3.16
2023-04-06T02:45:52.174Z,3.24
2023-04-06T02:48:21.677Z,3.33
2023-04-06T02:50:49.194Z,3.40
2023-04-06T02:53:17.003Z,3.29
2023-04-06T02:55:44.631Z,3.39
2023-04-06T02:58:12.765Z,3.63
2023-04-06T03:00:46.483Z,3.59
2023-04-06T03:03:14.223Z,3.24
2023-04-06T03:05:43.494Z,3.31
2023-04-06T03:08:11.509Z,3.38
2023-04-06T03:10:46.674Z,3.43
2023-04-06T03:13:15.822Z,3.60
2023-04-06T03:15:46.924Z,3.69
2023-04-06T03:18:24.185Z,3.37
2023-04-06T03:20:55.029Z,3.74
2023-04-06T03:23:25.837Z,3.56
2023-04-06T03:25:58.122Z,3.51
2023-04-06T03:28:25.767Z,3.34
2023-04-06T03:31:02.827Z,3.01
2023-04-06T03:33:48.900Z,3.14
2023-04-06T03:36:37.227Z,3.35
2023-04-06T03:39:06.544Z,3.32
2023-04-06T03:41:37.031Z,3.33
2023-04-06T03:44:23.683Z,3.34
2023-04-06T03:46:51.292Z,3.68
2023-04-06T03:49:19.515Z,3.56
2023-04-06T03:51:50.409Z,3.38
2023-04-06T03:54:17.913Z,3.64
2023-04-06T03:56:45.495Z,3.58
2023-04-06T03:59:12.987Z,3.41
2023-04-06T04:01:40.672Z,3.45
2023-04-06T04:04:08.376Z,3.21
2023-04-06T04:06:37.522Z,3.09
2023-04-06T04:09:06.160Z,2.88
2023-04-06T04:11:33.655Z,3.09
2023-04-06T04:14:01.179Z,3.10
2023-04-06T04:16:28.931Z,2.98
2023-04-06T04:18:59.840Z,3.07
2023-04-06T04:21:29.094Z,3.13
2023-04-06T04:23:56.688Z,3.52
2023-04-06T04:26:24.278Z,3.07
2023-04-06T04:28:54.808Z,3.19
2023-04-06T04:31:23.666Z,3.16
2023-04-06T04:33:56.422Z,3.11
2023-04-06T04:36:29.800Z,3.37
2023-04-06T04:38:59.181Z,3.31
2023-04-06T04:41:26.711Z,3.46
2023-04-06T04:43:54.731Z,3.54
2023-04-06T04:46:24.406Z,3.37
2023-04-06T04:48:53.441Z,3.49
2023-04-06T04:51:21.038Z,3.51
2023-04-06T04:54:08.439Z,3.89
2023-04-06T04:56:36.170Z,3.68
2023-04-06T04:59:17.518Z,3.71
2023-04-06T05:01:55.370Z,3.80
2023-04-06T05:04:30.646Z,4.00
2023-04-06T05:07:09.404Z,4.02
2023-04-06T05:09:39.340Z,3.97
2023-04-06T05:12:08.149Z,4.06
2023-04-06T05:14:43.538Z,4.27
2023-04-06T05:17:15.907Z,4.26
2023-04-06T05:19:43.441Z,4.30
2023-04-06T05:22:12.576Z,4.42
2023-04-06T05:24:42.834Z,4.39
2023-04-06T05:27:11.677Z,4.64
2023-04-06T05:29:39.720Z,4.53
2023-04-06T05:32:07.827Z,4.69
2023-04-06T05:34:36.289Z,4.85
2023-04-06T05:37:06.016Z,4.77
2023-04-06T05:39:33.547Z,4.82
2023-04-06T05:42:07.439Z,4.83
2023-04-06T05:44:56.327Z,5.09
2023-04-06T05:47:24.058Z,5.13
2023-04-06T05:50:03.789Z,5.15
2023-04-06T05:52:37.344Z,5.21
2023-04-06T05:55:06.052Z,5.37
2023-04-06T05:57:33.921Z,5.35
2023-04-06T06:00:01.555Z,5.25
2023-04-06T06:02:40.935Z,5.24
2023-04-06T06:05:11.869Z,5.27
2023-04-06T06:07:42.523Z,5.30
2023-04-06T06:10:11.874Z,5.45
2023-04-06T06:12:39.624Z,5.98
2023-04-06T06:15:08.533Z,5.99
2023-04-06T06:17:40.287Z,5.76
2023-04-06T06:20:09.416Z,5.72
2023-04-06T06:22:37.469Z,5.80
2023-04-06T06:25:05.330Z,6.06
2023-04-06T06:27:33.006Z,6.11
2023-04-06T06:30:00.843Z,6.01
2023-04-06T06:32:32.013Z,6.24
2023-04-06T06:35:00.528Z,6.33
2023-04-06T06:37:31.091Z,6.42
2023-04-06T06:40:00.285Z,6.58
2023-04-06T06:42:27.891Z,6.63
2023-04-06T06:45:10.324Z,6.71
2023-04-06T06:47:37.887Z,6.77
2023-04-06T06:50:07.342Z,6.63
2023-04-06T06:52:34.961Z,6.79
2023-04-06T06:55:04.206Z,6.88
2023-04-06T06:57:31.820Z,7.15
2023-04-06T07:00:01.038Z,7.07
2023-04-06T07:02:30.114Z,7.03
2023-04-06T07:04:58.535Z,7.27
2023-04-06T07:07:26.141Z,7.21
2023-04-06T07:09:54.366Z,7.32
2023-04-06T07:12:22.000Z,7.47
2023-04-06T07:14:49.560Z,7.51
2023-04-06T07:17:18.321Z,7.81
2023-04-06T07:19:46.626Z,7.97
2023-04-06T07:22:15.020Z,8.02
2023-04-06T07:24:42.554Z,8.27
2023-04-06T07:27:10.121Z,8.42
2023-04-06T07:29:37.759Z,8.43
2023-04-06T07:32:05.586Z,8.89
2023-04-06T07:34:35.068Z,8.80
2023-04-06T07:37:04.241Z,8.76
2023-04-06T07:39:32.484Z,8.68
2023-04-06T07:42:01.153Z,8.76
2023-04-06T07:44:28.769Z,9.05
2023-04-06T07:46:57.184Z,9.01
2023-04-06T07:49:25.177Z,9.30
2023-04-06T07:51:53.002Z,9.17
2023-04-06T07:54:22.016Z,9.34
2023-04-06T07:56:49.501Z,9.47
2023-04-06T07:59:17.037Z,9.60
2023-04-06T08:01:44.629Z,9.95
2023-04-06T08:04:12.553Z,10.11
2023-04-06T08:06:42.010Z,10.26
2023-04-06T08:09:09.574Z,10.29
2023-04-06T08:11:37.050Z,10.26
2023-04-06T08:14:04.672Z,10.30
2023-04-06T08:16:32.159Z,10.34
2023-04-06T08:18:59.675Z,10.27
2023-04-06T08:21:27.165Z,10.22
2023-04-06T08:23:54.694Z,10.38
2023-04-06T08:26:22.267Z,10.65
2023-04-06T08:28:49.819Z,10.60
2023-04-06T08:31:17.606Z,10.81
2023-04-06T08:33:45.611Z,10.91
2023-04-06T08:36:16.106Z,11.24
2023-04-06T08:38:46.577Z,11.39
2023-04-06T08:41:15.927Z,11.59
2023-04-06T08:43:45.087Z,11.34
2023-04-06T08:46:13.536Z,11.22
2023-04-06T08:48:43.467Z,11.54
2023-04-06T08:51:12.053Z,11.33
2023-04-06T08:53:40.697Z,11.55
2023-04-06T08:56:09.052Z,11.60
2023-04-06T08:58:40.165Z,11.75
2023-04-06T09:01:16.465Z,11.87
2023-04-06T09:03:44.985Z,11.74
2023-04-06T09:06:13.844Z,11.81
2023-04-06T09:08:43.688Z,11.84
2023-04-06T09:11:11.974Z,12.15
2023-04-06T09:13:57.272Z,12.26
2023-04-06T09:16:25.513Z,12.12
2023-04-06T09:18:53.000Z,12.00
2023-04-06T09:21:23.741Z,12.29
2023-04-06T09:24:05.432Z,12.44
2023-04-06T09:26:34.864Z,12.59
2023-04-06T09:29:02.646Z,12.50
2023-04-06T09:31:35.794Z,12.69
2023-04-06T09:34:03.707Z,12.36
2023-04-06T09:36:36.971Z,12.37
2023-04-06T09:39:06.300Z,13.03
2023-04-06T09:41:37.389Z,12.94
2023-04-06T09:44:10.781Z,13.03
2023-04-06T09:46:55.788Z,13.20
2023-04-06T09:49:29.745Z,13.23
2023-04-06T09:52:08.699Z,13.27
2023-04-06T09:54:37.757Z,12.98
2023-04-06T09:57:27.114Z,13.26
2023-04-06T10:00:17.355Z,13.44
2023-04-06T10:03:00.416Z,13.53
2023-04-06T10:05:39.382Z,13.72
2023-04-06T10:08:17.146Z,14.08
2023-04-06T10:10:45.066Z,13.96
2023-04-06T10:13:13.776Z,13.82
2023-04-06T10:15:41.738Z,13.75
2023-04-06T10:18:10.624Z,13.96
2023-04-06T10:20:57.464Z,13.91
2023-04-06T10:23:48.626Z,14.27
2023-04-06T10:26:21.664Z,14.58
2023-04-06T10:28:51.074Z,14.54
2023-04-06T10:31:28.904Z,14.50
2023-04-06T10:33:59.319Z,14.43
2023-04-06T10:36:34.702Z,14.16
2023-04-06T10:39:05.320Z,14.16
2023-04-06T10:41:46.785Z,14.12
2023-04-06T10:44:26.918Z,14.17
2023-04-06T10:47:02.564Z,14.54
2023-04-06T10:49:30.122Z,14.74
2023-04-06T10:51:59.208Z,15.07
2023-04-06T10:54:29.571Z,15.14
2023-04-06T10:56:57.576Z,15.13
2023-04-06T10:59:26.395Z,15.08
2023-04-06T11:01:56.138Z,15.08
2023-04-06T11:04:24.679Z,15.47
2023-04-06T11:06:52.479Z,15.77
2023-04-06T11:09:32.424Z,15.85
2023-04-06T11:12:00.221Z,15.83
2023-04-06T11:14:27.896Z,15.68
2023-04-06T11:16:55.974Z,15.80
2023-04-06T11:19:23.859Z,15.86
2023-04-06T11:21:52.216Z,15.91
2023-04-06T11:24:22.828Z,16.25
2023-04-06T11:26:54.895Z,16.16
2023-04-06T11:29:27.399Z,16.59
2023-04-06T11:32:04.135Z,16.69
2023-04-06T11:34:39.755Z,16.73
2023-04-06T11:37:13.165Z,16.57
2023-04-06T11:39:51.879Z,16.51
2023-04-06T11:42:37.813Z,16.38
2023-04-06T11:45:06.277Z,16.16
2023-04-06T11:47:39.101Z,16.42
2023-04-06T11:50:15.499Z,16.47
2023-04-06T11:52:44.010Z,16.64
2023-04-06T11:55:17.438Z,16.34
2023-04-06T11:57:46.241Z,16.40
2023-04-06T12:00:14.634Z,16.35
2023-04-06T12:02:48.922Z,16.59
2023-04-06T12:05:16.689Z,16.24
2023-04-06T12:07:44.198Z,16.22
2023-04-06T12:10:11.945Z,16.28
2023-04-06T12:12:39.631Z,16.20
2023-04-06T12:15:08.199Z,16.35
2023-04-06T12:17:35.830Z,16.53
2023-04-06T12:20:09.456Z,16.21
2023-04-06T12:22:45.706Z,16.19
2023-04-06T12:25:13.305Z,15.95
2023-04-06T12:27:41.209Z,15.87
2023-04-06T12:30:09.806Z,15.60
2023-04-06T12:32:37.427Z,15.92
2023-04-06T12:35:05.407Z,15.92
2023-04-06T12:37:33.304Z,15.71
2023-04-06T12:40:01.485Z,15.74
2023-04-06T12:42:29.011Z,15.79
2023-04-06T12:44:56.759Z,15.83
2023-04-06T12:47:24.418Z,15.23
2023-04-06T12:49:52.317Z,14.74
2023-04-06T12:52:19.965Z,15.01
2023-04-06T12:54:49.821Z,15.46
2023-04-06T12:57:18.443Z,15.45
2023-04-06T12:59:46.260Z,15.57
2023-04-06T13:02:13.886Z,15.63
2023-04-06T13:04:41.480Z,15.74
2023-04-06T13:07:09.306Z,15.64
2023-04-06T13:09:36.797Z,15.57
2023-04-06T13:12:04.616Z,15.41
2023-04-06T13:14:32.932Z,15.07
2023-04-06T13:17:01.226Z,15.04
2023-04-06T13:19:28.823Z,14.93
2023-04-06T13:21:56.407Z,14.48
2023-04-06T13:24:24.287Z,14.12
2023-04-06T13:26:51.887Z,14.14
2023-04-06T13:29:19.422Z,13.81
2023-04-06T13:31:47.152Z,13.64
2023-04-06T13:34:14.771Z,13.58
2023-04-06T13:36:43.716Z,13.55
2023-04-06T13:39:11.308Z,13.56
2023-04-06T13:41:39.002Z,13.60
2023-04-06T13:44:06.636Z,13.41
2023-04-06T13:46:34.254Z,13.52
2023-04-06T13:49:01.812Z,13.16
2023-04-06T13:51:29.371Z,13.09
2023-04-06T13:53:56.812Z,13.17
2023-04-06T13:56:24.319Z,13.12
2023-04-06T13:58:54.411Z,13.16
2023-04-06T14:01:21.921Z,13.12
2023-04-06T14:03:51.164Z,13.11
2023-04-06T14:06:30.518Z,13.11
2023-04-06T14:09:02.419Z,13.16
2023-04-06T14:11:30.325Z,12.96
2023-04-06T14:13:58.735Z,12.97
2023-04-06T14:16:27.413Z,13.07
2023-04-06T14:18:56.205Z,13.12
2023-04-06T14:21:23.868Z,13.00
2023-04-06T14:23:51.857Z,12.97
2023-04-06T14:26:20.536Z,13.00
2023-04-06T14:28:48.027Z,12.85
2023-04-06T14:31:17.230Z,13.32
2023-04-06T14:33:45.320Z,13.08
2023-04-06T14:36:12.948Z,13.14
2023-04-06T14:38:41.569Z,13.21
2023-04-06T14:41:16.049Z,13.72
2023-04-06T14:43:43.710Z,14.38
2023-04-06T14:46:11.334Z,14.89
2023-04-06T14:48:38.919Z,15.04
2023-04-06T14:51:06.788Z,14.96
2023-04-06T14:53:34.444Z,14.21
2023-04-06T14:56:01.912Z,13.85
2023-04-06T14:58:29.550Z,13.78
2023-04-06T15:01:01.457Z,13.52
2023-04-06T15:03:30.322Z,13.32
2023-04-06T15:05:58.554Z,13.09
2023-04-06T15:08:26.387Z,12.85
2023-04-06T15:10:55.760Z,12.62
2023-04-06T15:13:23.221Z,12.46
2023-04-06T15:15:52.843Z,12.41
2023-04-06T15:18:21.028Z,12.55
2023-04-06T15:20:48.760Z,12.83
2023-04-06T15:23:16.799Z,12.90
2023-04-06T15:25:45.478Z,12.99
2023-04-06T15:28:12.925Z,13.14
2023-04-06T15:30:40.652Z,12.89
2023-04-06T15:33:09.833Z,12.96
2023-04-06T15:35:40.854Z,12.86
2023-04-06T15:38:12.093Z,12.73
2023-04-06T15:40:48.286Z,12.68
2023-04-06T15:43:16.590Z,12.57
2023-04-06T15:45:44.156Z,12.75
2023-04-06T15:48:11.681Z,12.72
2023-04-06T15:50:41.637Z,12.40
2023-04-06T15:53:09.176Z,12.27
2023-04-06T15:55:37.776Z,12.31
2023-04-06T15:58:07.179Z,12.29
2023-04-06T16:00:34.754Z,12.30
2023-04-06T16:03:02.703Z,12.41
2023-04-06T16:05:34.527Z,12.19
2023-04-06T16:08:02.395Z,12.35
2023-04-06T16:10:29.904Z,12.22
2023-04-06T16:12:57.443Z,12.04
2023-04-06T16:15:24.927Z,12.12
2023-04-06T16:17:52.799Z,12.23
2023-04-06T16:20:20.267Z,12.01
2023-04-06T16:22:49.758Z,12.21
2023-04-06T16:25:17.466Z,11.97
2023-04-06T16:27:44.962Z,11.98
2023-04-06T16:30:13.447Z,11.72
2023-04-06T16:32:41.574Z,11.68
2023-04-06T16:35:09.469Z,11.68
2023-04-06T16:37:37.031Z,11.76
2023-04-06T16:40:05.018Z,11.68
2023-04-06T16:42:32.465Z,11.61
2023-04-06T16:45:19.907Z,11.75
2023-04-06T16:47:49.550Z,11.64
2023-04-06T16:50:18.355Z,11.50
2023-04-06T16:52:46.876Z,11.47
2023-04-06T16:55:14.591Z,11.23
2023-04-06T16:57:42.186Z,11.54
2023-04-06T17:00:10.904Z,11.33
2023-04-06T17:02:41.528Z,11.15
2023-04-06T17:05:09.701Z,11.14
2023-04-06T17:07:37.832Z,11.17
2023-04-06T17:10:07.081Z,11.17
2023-04-06T17:12:34.764Z,10.94
2023-04-06T17:15:02.479Z,10.86
2023-04-06T17:17:30.960Z,10.94
2023-04-06T17:20:01.043Z,10.77
2023-04-06T17:22:38.826Z,10.70
2023-04-06T17:25:07.732Z,10.69
2023-04-06T17:27:36.194Z,10.66
2023-04-06T17:30:09.573Z,10.41
2023-04-06T17:32:39.396Z,10.59
2023-04-06T17:35:11.673Z,10.35
2023-04-06T17:37:43.399Z,10.32
2023-04-06T17:40:12.082Z,10.29
2023-04-06T17:42:42.040Z,10.17
2023-04-06T17:45:12.840Z,10.35
2023-04-06T17:47:44.001Z,9.98
2023-04-06T17:52:56.760Z,9.98
2023-04-06T17:55:26.149Z,9.94
2023-04-06T17:57:54.923Z,9.80
2023-04-06T18:00:25.463Z,9.66
2023-04-06T18:02:55.572Z,9.48
2023-04-06T18:05:25.393Z,9.52
2023-04-06T18:07:56.652Z,9.60
2023-04-06T18:10:28.944Z,9.40
2023-04-06T18:13:01.771Z,9.42
2023-04-06T18:15:29.402Z,9.60
2023-04-06T18:17:57.049Z,9.25
2023-04-06T18:20:25.407Z,9.26
2023-04-06T18:22:56.780Z,9.25
2023-04-06T18:25:25.423Z,9.32
2023-04-06T18:27:53.048Z,9.24
2023-04-06T18:30:23.136Z,9.20
2023-04-06T18:32:54.062Z,9.41
2023-04-06T18:35:24.482Z,9.27
2023-04-06T18:37:52.248Z,8.90
2023-04-06T18:40:39.415Z,9.05
2023-04-06T18:43:10.003Z,9.10
2023-04-06T18:45:39.127Z,9.05
2023-04-06T18:48:08.305Z,9.00
2023-04-06T18:50:36.458Z,8.83
2023-04-06T18:53:04.047Z,9.04
2023-04-06T18:55:34.504Z,8.77
2023-04-06T18:58:02.080Z,8.75
2023-04-06T19:00:31.629Z,8.88
2023-04-06T19:02:59.347Z,8.67
2023-04-06T19:05:27.616Z,8.74
2023-04-06T19:07:55.388Z,8.72
2023-04-06T19:10:22.892Z,8.54
2023-04-06T19:12:51.764Z,8.38
2023-04-06T19:15:19.338Z,8.48
2023-04-06T19:17:47.847Z,8.39
2023-04-06T19:20:15.414Z,8.34
2023-04-06T19:22:44.614Z,8.37
2023-04-06T19:25:12.654Z,8.11
2023-04-06T19:27:40.258Z,8.16
2023-04-06T19:30:09.877Z,7.90
2023-04-06T19:32:40.173Z,8.09
2023-04-06T19:35:08.858Z,8.05
2023-04-06T19:37:37.952Z,8.08
2023-04-06T19:40:10.486Z,7.91
2023-04-06T19:42:38.876Z,7.93
2023-04-06T19:45:09.019Z,8.13
2023-04-06T19:47:36.798Z,8.12
2023-04-06T19:50:07.443Z,7.98
2023-04-06T19:52:35.826Z,7.86
2023-04-06T19:55:04.154Z,8.20
2023-04-06T19:57:32.676Z,8.11
2023-04-06T20:00:01.564Z,8.23
2023-04-06T20:02:38.431Z,8.03
2023-04-06T20:05:09.385Z,7.92
2023-04-06T20:07:39.007Z,7.98
2023-04-06T20:10:08.734Z,7.81
2023-04-06T20:12:36.371Z,7.78
2023-04-06T20:15:04.566Z,7.72
2023-04-06T20:17:32.088Z,7.61
2023-04-06T20:20:00.971Z,7.62
2023-04-06T20:22:28.417Z,7.46
2023-04-06T20:24:56.109Z,7.80
2023-04-06T20:27:23.680Z,7.72
2023-04-06T20:29:51.196Z,7.81
2023-04-06T20:32:21.000Z,7.89
2023-04-06T20:34:49.675Z,7.63
2023-04-06T20:37:18.642Z,7.62
2023-04-06T20:39:47.189Z,7.56
2023-04-06T20:42:14.846Z,7.46
2023-04-06T20:44:42.881Z,7.55
2023-04-06T20:47:10.453Z,7.56
2023-04-06T20:49:37.901Z,7.58
2023-04-06T20:52:05.512Z,7.40
2023-04-06T20:54:32.995Z,7.49
2023-04-06T20:57:01.973Z,7.66
2023-04-06T20:59:29.462Z,7.50
2023-04-06T21:01:57.153Z,7.46
2023-04-06T21:04:26.009Z,7.58
2023-04-06T21:06:54.950Z,7.42
2023-04-06T21:09:22.503Z,7.42
2023-04-06T21:11:50.017Z,7.35
2023-04-06T21:14:20.915Z,7.29
2023-04-06T21:16:48.754Z,7.53
2023-04-06T21:19:16.272Z,7.43
2023-04-06T21:21:43.759Z,7.30
2023-04-06T21:24:11.192Z,7.44
2023-04-06T21:26:38.764Z,7.48
2023-04-06T21:29:06.331Z,7.38
2023-04-06T21:31:35.761Z,7.55
2023-04-06T21:34:03.496Z,7.31
2023-04-06T21:36:32.749Z,7.23
2023-04-06T21:39:01.172Z,7.12
2023-04-06T21:41:32.586Z,7.22
2023-04-06T21:44:00.388Z,7.18
2023-04-06T21:46:28.192Z,7.32
2023-04-06T21:48:55.905Z,7.09
2023-04-06T21:51:24.295Z,7.14
2023-04-06T21:53:53.825Z,7.17
2023-04-06T21:56:23.853Z,7.16
2023-04-06T21:58:52.818Z,7.28
2023-04-06T22:01:21.517Z,7.19
2023-04-06T22:03:49.532Z,7.23
2023-04-06T22:06:17.387Z,7.16
2023-04-06T22:08:48.212Z,7.10
2023-04-06T22:11:16.197Z,7.19
2023-04-06T22:13:44.335Z,7.30
2023-04-06T22:16:12.154Z,7.30
2023-04-06T22:18:39.882Z,7.46
2023-04-06T22:21:08.213Z,7.47
2023-04-06T22:23:37.281Z,7.48
2023-04-06T22:26:09.324Z,7.27
2023-04-06T22:28:36.976Z,7.17
2023-04-06T22:31:04.774Z,7.35
2023-04-06T22:33:32.437Z,7.27
2023-04-06T22:35:59.923Z,7.46
2023-04-06T22:38:27.441Z,7.33
2023-04-06T22:40:54.910Z,7.21
2023-04-06T22:43:22.444Z,7.41
2023-04-06T22:45:49.916Z,7.31
2023-04-06T22:48:17.448Z,7.21
2023-04-06T22:50:45.038Z,7.16
2023-04-06T22:53:12.609Z,7.22
2023-04-06T22:55:43.881Z,7.24
2023-04-06T22:58:11.632Z,7.12
2023-04-06T23:00:39.051Z,7.18
2023-04-06T23:03:06.767Z,7.24
2023-04-06T23:05:34.544Z,7.14
2023-04-06T23:08:03.256Z,7.24
2023-04-06T23:10:33.093Z,7.22
2023-04-06T23:13:00.566Z,7.27
2023-04-06T23:15:28.181Z,7.37
2023-04-06T23:17:55.747Z,7.31
2023-04-06T23:20:23.349Z,7.24
2023-04-06T23:22:51.000Z,7.26
2023-04-06T23:25:18.756Z,7.30
2023-04-06T23:27:46.278Z,7.43
2023-04-06T23:30:13.890Z,7.23
2023-04-06T23:32:41.649Z,7.08
2023-04-06T23:35:09.803Z,7.19
2023-04-06T23:37:37.335Z,7.40
2023-04-06T23:40:05.451Z,7.39
2023-04-06T23:42:32.966Z,7.52
2023-04-06T23:45:02.355Z,7.47
2023-04-06T23:47:30.356Z,7.37
2023-04-06T23:49:58.208Z,7.30
2023-04-06T23:52:29.798Z,7.40
2023-04-06T23:54:57.370Z,7.49
2023-04-06T23:57:24.969Z,7.27
2023-04-06T23:59:52.509Z,7.21
